sensor_id;sensor_type;location;lat;lon;timestamp;pressure;altitude;pressure_sealevel;temperature;humidity
33422;BME280;19763;55.798;37.782;2023-07-31T00:00:27;39055.53;;;-145.63;53.90
33422;BME280;19763;55.798;37.782;2023-07-31T00:02:52;39067.28;;;-145.63;53.67
33422;BME280;19763;55.798;37.782;2023-07-31T00:05:18;39071.19;;;-145.63;54.11
33422;BME280;19763;55.798;37.782;2023-07-31T00:07:44;39073.13;;;-145.63;54.13
33422;BME280;19763;55.798;37.782;2023-07-31T00:10:09;39051.63;;;-145.63;53.73
33422;BME280;19763;55.798;37.782;2023-07-31T00:12:35;39032.06;;;-145.63;53.78
33422;BME280;19763;55.798;37.782;2023-07-31T00:15:02;39022.28;;;-145.63;53.62
33422;BME280;19763;55.798;37.782;2023-07-31T00:17:30;39069.22;;;-145.63;54.21
33422;BME280;19763;55.798;37.782;2023-07-31T00:19:56;39075.09;;;-145.63;53.81
33422;BME280;19763;55.798;37.782;2023-07-31T00:22:22;39028.16;;;-145.63;54.30
33422;BME280;19763;55.798;37.782;2023-07-31T00:24:48;39094.66;;;-145.63;54.21
33422;BME280;19763;55.798;37.782;2023-07-31T00:27:14;39059.44;;;-145.63;54.37
33422;BME280;19763;55.798;37.782;2023-07-31T00:29:39;39061.41;;;-145.63;54.30
33422;BME280;19763;55.798;37.782;2023-07-31T00:32:05;39092.69;;;-145.63;54.29
33422;BME280;19763;55.798;37.782;2023-07-31T00:34:31;39059.44;;;-145.63;54.63
33422;BME280;19763;55.798;37.782;2023-07-31T00:36:57;39047.72;;;-145.63;54.80
33422;BME280;19763;55.798;37.782;2023-07-31T00:39:23;39057.50;;;-145.63;54.78
33422;BME280;19763;55.798;37.782;2023-07-31T00:41:48;39063.34;;;-145.63;54.62
33422;BME280;19763;55.798;37.782;2023-07-31T00:44:14;39094.66;;;-145.63;54.81
33422;BME280;19763;55.798;37.782;2023-07-31T00:46:40;39090.75;;;-145.63;54.99
33422;BME280;19763;55.798;37.782;2023-07-31T00:49:05;39106.38;;;-145.63;54.66
33422;BME280;19763;55.798;37.782;2023-07-31T00:51:32;39122.03;;;-145.63;54.80
33422;BME280;19763;55.798;37.782;2023-07-31T00:53:58;39112.25;;;-145.63;54.64
33422;BME280;19763;55.798;37.782;2023-07-31T00:56:24;39098.56;;;-145.63;54.82
33422;BME280;19763;55.798;37.782;2023-07-31T00:58:50;39102.47;;;-145.63;54.67
33422;BME280;19763;55.798;37.782;2023-07-31T01:01:16;39114.22;;;-145.63;54.63
33422;BME280;19763;55.798;37.782;2023-07-31T01:03:42;39114.22;;;-145.63;54.92
33422;BME280;19763;55.798;37.782;2023-07-31T01:06:36;39141.59;;;-145.63;54.62
33422;BME280;19763;55.798;37.782;2023-07-31T01:11:48;39108.34;;;-145.63;55.26
33422;BME280;19763;55.798;37.782;2023-07-31T01:14:17;39098.56;;;-145.63;54.90
33422;BME280;19763;55.798;37.782;2023-07-31T01:16:42;39088.78;;;-145.63;55.20
33422;BME280;19763;55.798;37.782;2023-07-31T01:19:09;39075.09;;;-145.63;55.12
33422;BME280;19763;55.798;37.782;2023-07-31T01:24:08;39092.69;;;-145.63;54.65
33422;BME280;19763;55.798;37.782;2023-07-31T01:26:45;39079.00;;;-145.63;54.70
33422;BME280;19763;55.798;37.782;2023-07-31T01:29:26;39096.59;;;-145.63;54.59
33422;BME280;19763;55.798;37.782;2023-07-31T01:31:56;39139.63;;;-145.63;54.61
33422;BME280;19763;55.798;37.782;2023-07-31T01:34:25;39071.19;;;-145.63;54.53
33422;BME280;19763;55.798;37.782;2023-07-31T01:36:51;39092.69;;;-145.63;54.80
33422;BME280;19763;55.798;37.782;2023-07-31T01:39:19;39106.38;;;-145.63;54.76
33422;BME280;19763;55.798;37.782;2023-07-31T01:41:45;39092.69;;;-145.63;54.66
33422;BME280;19763;55.798;37.782;2023-07-31T01:44:11;39082.91;;;-145.63;54.59
33422;BME280;19763;55.798;37.782;2023-07-31T01:46:37;38977.31;;;-145.63;54.15
33422;BME280;19763;55.798;37.782;2023-07-31T01:49:03;39086.81;;;-145.63;54.22
33422;BME280;19763;55.798;37.782;2023-07-31T01:51:31;39096.59;;;-145.63;54.55
33422;BME280;19763;55.798;37.782;2023-07-31T01:54:00;39082.91;;;-145.63;54.59
33422;BME280;19763;55.798;37.782;2023-07-31T01:56:26;39094.66;;;-145.63;53.95
33422;BME280;19763;55.798;37.782;2023-07-31T01:58:51;39104.44;;;-145.63;54.34
33422;BME280;19763;55.798;37.782;2023-07-31T02:01:17;39067.28;;;-145.63;54.04
33422;BME280;19763;55.798;37.782;2023-07-31T02:03:43;39110.28;;;-145.63;54.08
33422;BME280;19763;55.798;37.782;2023-07-31T02:06:08;39090.75;;;-145.63;54.42
33422;BME280;19763;55.798;37.782;2023-07-31T02:08:34;39071.19;;;-145.63;54.94
33422;BME280;19763;55.798;37.782;2023-07-31T02:11:00;39114.22;;;-145.63;54.78
33422;BME280;19763;55.798;37.782;2023-07-31T02:13:25;39096.59;;;-145.63;54.65
33422;BME280;19763;55.798;37.782;2023-07-31T02:15:51;39094.66;;;-145.63;54.68
33422;BME280;19763;55.798;37.782;2023-07-31T02:18:17;39067.28;;;-145.63;54.62
33422;BME280;19763;55.798;37.782;2023-07-31T02:20:43;39057.50;;;-145.63;54.69
33422;BME280;19763;55.798;37.782;2023-07-31T02:23:11;39110.28;;;-145.63;54.77
33422;BME280;19763;55.798;37.782;2023-07-31T02:25:37;39092.69;;;-145.63;54.90
33422;BME280;19763;55.798;37.782;2023-07-31T02:28:03;39082.91;;;-145.63;54.50
33422;BME280;19763;55.798;37.782;2023-07-31T02:30:28;39104.44;;;-145.63;54.40
33422;BME280;19763;55.798;37.782;2023-07-31T02:32:54;39118.13;;;-145.63;54.23
33422;BME280;19763;55.798;37.782;2023-07-31T02:35:20;39067.28;;;-145.63;54.38
33422;BME280;19763;55.798;37.782;2023-07-31T02:37:46;39092.69;;;-145.63;54.60
33422;BME280;19763;55.798;37.782;2023-07-31T02:40:12;39092.69;;;-145.63;54.44
33422;BME280;19763;55.798;37.782;2023-07-31T02:42:37;39094.66;;;-145.63;54.26
33422;BME280;19763;55.798;37.782;2023-07-31T02:45:03;39106.38;;;-145.63;54.39
33422;BME280;19763;55.798;37.782;2023-07-31T02:47:32;39067.28;;;-145.63;54.42
33422;BME280;19763;55.798;37.782;2023-07-31T02:49:57;39080.97;;;-145.63;54.46
33422;BME280;19763;55.798;37.782;2023-07-31T02:52:24;39082.91;;;-145.63;54.38
33422;BME280;19763;55.798;37.782;2023-07-31T02:54:50;39047.72;;;-145.63;54.51
33422;BME280;19763;55.798;37.782;2023-07-31T02:57:16;39049.66;;;-145.63;54.41
33422;BME280;19763;55.798;37.782;2023-07-31T02:59:42;39055.53;;;-145.63;54.33
33422;BME280;19763;55.798;37.782;2023-07-31T03:02:07;38992.97;;;-145.63;54.62
33422;BME280;19763;55.798;37.782;2023-07-31T03:04:33;39037.94;;;-145.63;54.78
33422;BME280;19763;55.798;37.782;2023-07-31T03:06:59;39055.53;;;-145.63;54.28
33422;BME280;19763;55.798;37.782;2023-07-31T03:09:24;39047.72;;;-145.63;54.24
33422;BME280;19763;55.798;37.782;2023-07-31T03:11:50;39071.19;;;-145.63;53.84
33422;BME280;19763;55.798;37.782;2023-07-31T03:14:16;39039.88;;;-145.63;53.77
33422;BME280;19763;55.798;37.782;2023-07-31T03:16:41;39049.66;;;-145.63;53.48
33422;BME280;19763;55.798;37.782;2023-07-31T03:19:07;39014.47;;;-145.63;53.60
33422;BME280;19763;55.798;37.782;2023-07-31T03:21:32;39008.59;;;-145.63;53.25
33422;BME280;19763;55.798;37.782;2023-07-31T03:23:58;38994.91;;;-145.63;53.40
33422;BME280;19763;55.798;37.782;2023-07-31T03:26:24;38998.81;;;-145.63;53.53
33422;BME280;19763;55.798;37.782;2023-07-31T03:28:49;38973.41;;;-145.63;52.56
33422;BME280;19763;55.798;37.782;2023-07-31T03:31:15;38996.88;;;-145.63;52.64
33422;BME280;19763;55.798;37.782;2023-07-31T03:33:41;38944.06;;;-145.63;51.78
33422;BME280;19763;55.798;37.782;2023-07-31T03:36:06;38985.13;;;-145.63;52.11
33422;BME280;19763;55.798;37.782;2023-07-31T03:38:34;38934.28;;;-145.63;51.40
33422;BME280;19763;55.798;37.782;2023-07-31T03:41:00;38944.06;;;-145.63;50.91
33422;BME280;19763;55.798;37.782;2023-07-31T03:43:25;38951.88;;;-145.63;50.56
33422;BME280;19763;55.798;37.782;2023-07-31T03:45:51;38942.13;;;-145.63;50.60
33422;BME280;19763;55.798;37.782;2023-07-31T03:48:17;38922.56;;;-145.63;50.44
33422;BME280;19763;55.798;37.782;2023-07-31T03:50:43;38899.09;;;-145.63;50.59
33422;BME280;19763;55.798;37.782;2023-07-31T03:53:08;38854.13;;;-145.63;50.03
33422;BME280;19763;55.798;37.782;2023-07-31T03:55:34;38867.81;;;-145.63;49.29
33422;BME280;19763;55.798;37.782;2023-07-31T03:58:00;38809.13;;;-145.63;48.90
33422;BME280;19763;55.798;37.782;2023-07-31T04:00:26;38773.94;;;-145.63;47.91
33422;BME280;19763;55.798;37.782;2023-07-31T04:02:52;38770.03;;;-145.63;47.73
33422;BME280;19763;55.798;37.782;2023-07-31T04:05:18;38801.31;;;-145.63;46.99
33422;BME280;19763;55.798;37.782;2023-07-31T04:07:44;38834.56;;;-145.63;47.28
33422;BME280;19763;55.798;37.782;2023-07-31T04:10:10;38824.78;;;-145.63;46.48
33422;BME280;19763;55.798;37.782;2023-07-31T04:12:36;38811.09;;;-145.63;46.79
33422;BME280;19763;55.798;37.782;2023-07-31T04:15:02;38762.22;;;-145.63;46.76
33422;BME280;19763;55.798;37.782;2023-07-31T04:17:32;38801.31;;;-145.63;46.80
33422;BME280;19763;55.798;37.782;2023-07-31T04:19:57;38816.97;;;-145.63;46.31
33422;BME280;19763;55.798;37.782;2023-07-31T04:22:23;38816.97;;;-145.63;46.33
33422;BME280;19763;55.798;37.782;2023-07-31T04:24:49;38799.34;;;-145.63;46.58
33422;BME280;19763;55.798;37.782;2023-07-31T04:27:14;38789.59;;;-145.63;46.23
33422;BME280;19763;55.798;37.782;2023-07-31T04:29:40;38789.59;;;-145.63;45.37
33422;BME280;19763;55.798;37.782;2023-07-31T04:32:08;38762.22;;;-145.63;44.64
33422;BME280;19763;55.798;37.782;2023-07-31T04:34:34;38781.75;;;-145.63;44.82
33422;BME280;19763;55.798;37.782;2023-07-31T04:36:59;38887.34;;;-145.63;45.02
33422;BME280;19763;55.798;37.782;2023-07-31T04:39:25;38762.22;;;-145.63;44.77
33422;BME280;19763;55.798;37.782;2023-07-31T04:41:50;38758.28;;;-145.63;44.71
33422;BME280;19763;55.798;37.782;2023-07-31T04:44:16;38771.97;;;-145.63;44.59
33422;BME280;19763;55.798;37.782;2023-07-31T04:46:42;38738.75;;;-145.63;44.52
33422;BME280;19763;55.798;37.782;2023-07-31T04:49:07;38697.69;;;-145.63;44.69
33422;BME280;19763;55.798;37.782;2023-07-31T04:51:33;38709.41;;;-145.63;44.71
33422;BME280;19763;55.798;37.782;2023-07-31T04:53:59;38703.53;;;-145.63;44.07
33422;BME280;19763;55.798;37.782;2023-07-31T04:56:24;38691.81;;;-145.63;44.02
33422;BME280;19763;55.798;37.782;2023-07-31T04:58:50;38699.63;;;-145.63;44.32
33422;BME280;19763;55.798;37.782;2023-07-31T05:01:15;38684.00;;;-145.63;44.77
33422;BME280;19763;55.798;37.782;2023-07-31T05:03:41;38648.78;;;-145.63;44.40
33422;BME280;19763;55.798;37.782;2023-07-31T05:06:07;38650.75;;;-145.63;44.34
33422;BME280;19763;55.798;37.782;2023-07-31T05:08:32;38586.22;;;-145.63;43.80
33422;BME280;19763;55.798;37.782;2023-07-31T05:10:59;38637.06;;;-145.63;43.11
33422;BME280;19763;55.798;37.782;2023-07-31T05:13:24;38597.94;;;-145.63;43.34
33422;BME280;19763;55.798;37.782;2023-07-31T05:15:50;38566.66;;;-145.63;43.46
33422;BME280;19763;55.798;37.782;2023-07-31T05:18:16;38592.09;;;-145.63;43.38
33422;BME280;19763;55.798;37.782;2023-07-31T05:20:41;38578.41;;;-145.63;42.74
33422;BME280;19763;55.798;37.782;2023-07-31T05:23:07;38535.38;;;-145.63;42.77
33422;BME280;19763;55.798;37.782;2023-07-31T05:25:33;38554.94;;;-145.63;41.91
33422;BME280;19763;55.798;37.782;2023-07-31T05:27:59;38412.19;;;-145.63;42.19
33422;BME280;19763;55.798;37.782;2023-07-31T05:30:24;38509.97;;;-145.63;41.37
33422;BME280;19763;55.798;37.782;2023-07-31T05:32:50;38508.00;;;-145.63;41.76
33422;BME280;19763;55.798;37.782;2023-07-31T05:35:16;38506.03;;;-145.63;41.76
33422;BME280;19763;55.798;37.782;2023-07-31T05:37:41;38490.41;;;-145.63;41.27
33422;BME280;19763;55.798;37.782;2023-07-31T05:40:07;38437.59;;;-145.63;40.23
33422;BME280;19763;55.798;37.782;2023-07-31T05:42:33;38410.22;;;-145.63;38.34
33422;BME280;19763;55.798;37.782;2023-07-31T05:45:00;38384.81;;;-145.63;40.17
33422;BME280;19763;55.798;37.782;2023-07-31T05:47:25;38355.50;;;-145.63;39.35
33422;BME280;19763;55.798;37.782;2023-07-31T05:49:51;38326.16;;;-145.63;38.65
33422;BME280;19763;55.798;37.782;2023-07-31T05:52:18;38337.88;;;-145.63;39.73
33422;BME280;19763;55.798;37.782;2023-07-31T05:54:44;38386.78;;;-145.63;38.25
33422;BME280;19763;55.798;37.782;2023-07-31T05:57:11;38347.66;;;-145.63;39.02
33422;BME280;19763;55.798;37.782;2023-07-31T05:59:37;38359.41;;;-145.63;38.88
33422;BME280;19763;55.798;37.782;2023-07-31T06:02:03;38333.97;;;-145.63;38.69
33422;BME280;19763;55.798;37.782;2023-07-31T06:04:29;38341.81;;;-145.63;38.25
33422;BME280;19763;55.798;37.782;2023-07-31T06:06:54;38339.84;;;-145.63;38.03
33422;BME280;19763;55.798;37.782;2023-07-31T06:09:20;38333.97;;;-145.63;38.06
33422;BME280;19763;55.798;37.782;2023-07-31T06:11:46;38308.56;;;-145.63;36.90
33422;BME280;19763;55.798;37.782;2023-07-31T06:14:12;38332.03;;;-145.63;37.94
33422;BME280;19763;55.798;37.782;2023-07-31T06:16:37;38322.25;;;-145.63;36.25
33422;BME280;19763;55.798;37.782;2023-07-31T06:19:03;38300.75;;;-145.63;35.27
33422;BME280;19763;55.798;37.782;2023-07-31T06:21:29;38290.97;;;-145.63;35.52
33422;BME280;19763;55.798;37.782;2023-07-31T06:23:55;38259.69;;;-145.63;36.15
33422;BME280;19763;55.798;37.782;2023-07-31T06:26:20;38251.84;;;-145.63;36.79
33422;BME280;19763;55.798;37.782;2023-07-31T06:28:46;38269.47;;;-145.63;35.90
33422;BME280;19763;55.798;37.782;2023-07-31T06:31:12;38283.16;;;-145.63;35.04
33422;BME280;19763;55.798;37.782;2023-07-31T06:33:37;38234.25;;;-145.63;34.08
33422;BME280;19763;55.798;37.782;2023-07-31T06:36:03;38226.44;;;-145.63;34.76
33422;BME280;19763;55.798;37.782;2023-07-31T06:38:29;38234.25;;;-145.63;34.36
33422;BME280;19763;55.798;37.782;2023-07-31T06:40:54;38175.59;;;-145.63;35.01
33422;BME280;19763;55.798;37.782;2023-07-31T06:43:21;38193.19;;;-145.63;35.54
33422;BME280;19763;55.798;37.782;2023-07-31T06:45:46;38216.66;;;-145.63;33.88
33422;BME280;19763;55.798;37.782;2023-07-31T06:48:15;38173.66;;;-145.63;32.88
33422;BME280;19763;55.798;37.782;2023-07-31T06:50:41;38193.19;;;-145.63;32.15
33422;BME280;19763;55.798;37.782;2023-07-31T06:53:06;38156.06;;;-145.63;33.12
33422;BME280;19763;55.798;37.782;2023-07-31T06:55:32;38152.16;;;-145.63;34.21
33422;BME280;19763;55.798;37.782;2023-07-31T06:57:58;38134.53;;;-145.63;33.06
33422;BME280;19763;55.798;37.782;2023-07-31T07:00:23;38152.16;;;-145.63;33.52
33422;BME280;19763;55.798;37.782;2023-07-31T07:02:49;38142.38;;;-145.63;33.73
33422;BME280;19763;55.798;37.782;2023-07-31T07:05:16;38140.41;;;-145.63;32.99
33422;BME280;19763;55.798;37.782;2023-07-31T07:07:43;38132.59;;;-145.63;32.76
33422;BME280;19763;55.798;37.782;2023-07-31T07:10:09;38103.25;;;-145.63;32.50
33422;BME280;19763;55.798;37.782;2023-07-31T07:12:35;38120.88;;;-145.63;33.30
33422;BME280;19763;55.798;37.782;2023-07-31T07:15:01;38077.84;;;-145.63;33.17
33422;BME280;19763;55.798;37.782;2023-07-31T07:17:29;38042.66;;;-145.63;33.46
33422;BME280;19763;55.798;37.782;2023-07-31T07:19:59;38058.28;;;-145.63;32.63
33422;BME280;19763;55.798;37.782;2023-07-31T07:22:25;38038.75;;;-145.63;31.32
33422;BME280;19763;55.798;37.782;2023-07-31T07:24:52;38056.34;;;-145.63;31.53
33422;BME280;19763;55.798;37.782;2023-07-31T07:27:18;38042.66;;;-145.63;30.16
33422;BME280;19763;55.798;37.782;2023-07-31T07:29:45;38013.31;;;-145.63;32.01
33422;BME280;19763;55.798;37.782;2023-07-31T07:32:11;38050.47;;;-145.63;31.80
33422;BME280;19763;55.798;37.782;2023-07-31T07:34:37;38028.97;;;-145.63;31.54
33422;BME280;19763;55.798;37.782;2023-07-31T07:37:03;38015.28;;;-145.63;32.17
33422;BME280;19763;55.798;37.782;2023-07-31T07:39:29;38023.09;;;-145.63;29.80
33422;BME280;19763;55.798;37.782;2023-07-31T07:41:55;38001.59;;;-145.63;30.78
33422;BME280;19763;55.798;37.782;2023-07-31T07:44:21;38015.28;;;-145.63;31.17
33422;BME280;19763;55.798;37.782;2023-07-31T07:46:46;37997.69;;;-145.63;30.84
33422;BME280;19763;55.798;37.782;2023-07-31T07:49:12;37960.53;;;-145.63;29.96
33422;BME280;19763;55.798;37.782;2023-07-31T07:51:38;37952.72;;;-145.63;30.25
33422;BME280;19763;55.798;37.782;2023-07-31T07:54:04;37960.53;;;-145.63;30.96
33422;BME280;19763;55.798;37.782;2023-07-31T07:56:30;37941.00;;;-145.63;29.37
33422;BME280;19763;55.798;37.782;2023-07-31T07:58:55;37917.53;;;-145.63;30.89
33422;BME280;19763;55.798;37.782;2023-07-31T08:01:21;37892.13;;;-145.63;30.79
33422;BME280;19763;55.798;37.782;2023-07-31T08:03:47;37923.41;;;-145.63;30.14
33422;BME280;19763;55.798;37.782;2023-07-31T08:06:14;37909.72;;;-145.63;28.43
33422;BME280;19763;55.798;37.782;2023-07-31T08:08:40;37878.44;;;-145.63;30.49
33422;BME280;19763;55.798;37.782;2023-07-31T08:11:06;37923.41;;;-145.63;29.37
33422;BME280;19763;55.798;37.782;2023-07-31T08:13:31;37876.47;;;-145.63;29.50
33422;BME280;19763;55.798;37.782;2023-07-31T08:15:57;37874.53;;;-145.63;28.73
33422;BME280;19763;55.798;37.782;2023-07-31T08:18:22;37811.97;;;-145.63;29.40
33422;BME280;19763;55.798;37.782;2023-07-31T08:20:48;37837.38;;;-145.63;30.25
33422;BME280;19763;55.798;37.782;2023-07-31T08:23:14;37829.56;;;-145.63;28.84
33422;BME280;19763;55.798;37.782;2023-07-31T08:25:40;37778.72;;;-145.63;29.40
33422;BME280;19763;55.798;37.782;2023-07-31T08:28:06;37657.50;;;-145.63;28.73
33422;BME280;19763;55.798;37.782;2023-07-31T08:30:32;37768.94;;;-145.63;30.15
33422;BME280;19763;55.798;37.782;2023-07-31T08:33:01;37768.94;;;-145.63;28.25
33422;BME280;19763;55.798;37.782;2023-07-31T08:35:28;37808.06;;;-145.63;27.30
33422;BME280;19763;55.798;37.782;2023-07-31T08:37:54;37778.72;;;-145.63;27.00
33422;BME280;19763;55.798;37.782;2023-07-31T08:40:20;37739.63;;;-145.63;28.29
33422;BME280;19763;55.798;37.782;2023-07-31T08:42:48;37768.94;;;-145.63;27.04
33422;BME280;19763;55.798;37.782;2023-07-31T08:45:19;37737.66;;;-145.63;28.52
33422;BME280;19763;55.798;37.782;2023-07-31T08:47:50;37743.53;;;-145.63;27.83
33422;BME280;19763;55.798;37.782;2023-07-31T08:50:18;37686.84;;;-145.63;27.94
33422;BME280;19763;55.798;37.782;2023-07-31T08:52:45;37620.38;;;-145.63;27.99
33422;BME280;19763;55.798;37.782;2023-07-31T08:55:11;37632.09;;;-145.63;27.31
33422;BME280;19763;55.798;37.782;2023-07-31T08:57:37;37659.47;;;-145.63;27.03
33422;BME280;19763;55.798;37.782;2023-07-31T09:00:05;37667.28;;;-145.63;28.09
33422;BME280;19763;55.798;37.782;2023-07-31T09:02:57;37669.25;;;-145.63;26.15
33422;BME280;19763;55.798;37.782;2023-07-31T09:05:26;37622.31;;;-145.63;25.75
33422;BME280;19763;55.798;37.782;2023-07-31T09:07:53;37616.47;;;-145.63;25.71
33422;BME280;19763;55.798;37.782;2023-07-31T09:10:20;37587.13;;;-145.63;26.89
33422;BME280;19763;55.798;37.782;2023-07-31T09:12:46;37575.41;;;-145.63;26.97
33422;BME280;19763;55.798;37.782;2023-07-31T09:15:12;37544.13;;;-145.63;26.68
33422;BME280;19763;55.798;37.782;2023-07-31T09:17:38;37528.50;;;-145.63;26.80
33422;BME280;19763;55.798;37.782;2023-07-31T09:20:20;37485.50;;;-145.63;26.69
33422;BME280;19763;55.798;37.782;2023-07-31T09:22:48;37528.50;;;-145.63;25.88
33422;BME280;19763;55.798;37.782;2023-07-31T09:25:24;36942.06;;;-145.63;26.16
33422;BME280;19763;55.798;37.782;2023-07-31T09:27:54;37503.09;;;-145.63;26.23
33422;BME280;19763;55.798;37.782;2023-07-31T09:30:20;37503.09;;;-145.63;26.21
33422;BME280;19763;55.798;37.782;2023-07-31T09:32:48;37463.97;;;-145.63;27.64
33422;BME280;19763;55.798;37.782;2023-07-31T09:35:31;37456.16;;;-145.63;26.01
33422;BME280;19763;55.798;37.782;2023-07-31T09:37:59;36881.50;;;-145.63;26.98
33422;BME280;19763;55.798;37.782;2023-07-31T09:42:53;37505.03;;;-145.63;25.22
33422;BME280;19763;55.798;37.782;2023-07-31T09:45:19;37460.06;;;-145.63;26.72
33422;BME280;19763;55.798;37.782;2023-07-31T09:47:48;37420.97;;;-145.63;26.19
33422;BME280;19763;55.798;37.782;2023-07-31T09:50:14;37411.19;;;-145.63;25.98
33422;BME280;19763;55.798;37.782;2023-07-31T09:52:41;37483.53;;;-145.63;25.54
33422;BME280;19763;55.798;37.782;2023-07-31T09:55:09;37505.03;;;-145.63;25.78
33422;BME280;19763;55.798;37.782;2023-07-31T09:57:39;37436.63;;;-145.63;26.52
33422;BME280;19763;55.798;37.782;2023-07-31T10:00:06;37442.47;;;-145.63;26.23
33422;BME280;19763;55.798;37.782;2023-07-31T10:02:35;37413.16;;;-145.63;26.56
33422;BME280;19763;55.798;37.782;2023-07-31T10:05:03;37409.25;;;-145.63;25.54
33422;BME280;19763;55.798;37.782;2023-07-31T10:07:31;37385.78;;;-145.63;25.78
33422;BME280;19763;55.798;37.782;2023-07-31T10:10:00;37397.53;;;-145.63;26.97
33422;BME280;19763;55.798;37.782;2023-07-31T10:12:27;37395.56;;;-145.63;26.40
33422;BME280;19763;55.798;37.782;2023-07-31T10:14:56;37440.53;;;-145.63;24.34
33422;BME280;19763;55.798;37.782;2023-07-31T10:17:25;37235.28;;;-145.63;25.00
33422;BME280;19763;55.798;37.782;2023-07-31T10:19:53;37448.34;;;-145.63;26.30
33422;BME280;19763;55.798;37.782;2023-07-31T10:22:21;37477.66;;;-145.63;25.37
33422;BME280;19763;55.798;37.782;2023-07-31T10:24:48;37432.72;;;-145.63;27.55
33422;BME280;19763;55.798;37.782;2023-07-31T10:27:15;37448.34;;;-145.63;26.59
33422;BME280;19763;55.798;37.782;2023-07-31T10:29:43;37458.13;;;-145.63;27.25
33422;BME280;19763;55.798;37.782;2023-07-31T10:32:11;37550.00;;;-145.63;28.28
33422;BME280;19763;55.798;37.782;2023-07-31T10:34:39;37495.25;;;-145.63;26.05
33422;BME280;19763;55.798;37.782;2023-07-31T10:42:31;37606.69;;;-145.63;26.27
33422;BME280;19763;55.798;37.782;2023-07-31T10:45:07;37606.69;;;-145.63;25.58
33422;BME280;19763;55.798;37.782;2023-07-31T10:47:43;37557.81;;;-145.63;25.90
33422;BME280;19763;55.798;37.782;2023-07-31T10:50:29;37583.22;;;-145.63;27.81
33422;BME280;19763;55.798;37.782;2023-07-31T10:52:56;37573.47;;;-145.63;27.72
33422;BME280;19763;55.798;37.782;2023-07-31T10:55:42;37510.91;;;-145.63;27.53
33422;BME280;19763;55.798;37.782;2023-07-31T10:58:12;37573.47;;;-145.63;26.93
33422;BME280;19763;55.798;37.782;2023-07-31T11:00:42;37569.53;;;-145.63;26.44
33422;BME280;19763;55.798;37.782;2023-07-31T11:03:09;37553.91;;;-145.63;27.91
33422;BME280;19763;55.798;37.782;2023-07-31T11:05:50;37589.09;;;-145.63;28.74
33422;BME280;19763;55.798;37.782;2023-07-31T11:08:27;37647.75;;;-145.63;27.30
33422;BME280;19763;55.798;37.782;2023-07-31T11:13:51;37612.56;;;-145.63;26.33
33422;BME280;19763;55.798;37.782;2023-07-31T11:16:22;37593.00;;;-145.63;26.96
33422;BME280;19763;55.798;37.782;2023-07-31T11:18:48;37602.78;;;-145.63;26.42
33422;BME280;19763;55.798;37.782;2023-07-31T11:21:20;37561.72;;;-145.63;27.10
33422;BME280;19763;55.798;37.782;2023-07-31T11:23:53;37579.31;;;-145.63;26.71
33422;BME280;19763;55.798;37.782;2023-07-31T11:26:19;37594.97;;;-145.63;26.65
33422;BME280;19763;55.798;37.782;2023-07-31T11:28:49;37618.41;;;-145.63;27.26
33422;BME280;19763;55.798;37.782;2023-07-31T11:31:16;37432.72;;;-145.63;26.09
33422;BME280;19763;55.798;37.782;2023-07-31T11:33:42;37675.09;;;-145.63;27.32
33422;BME280;19763;55.798;37.782;2023-07-31T11:36:17;37686.84;;;-145.63;27.22
33422;BME280;19763;55.798;37.782;2023-07-31T11:38:44;37686.84;;;-145.63;27.70
33422;BME280;19763;55.798;37.782;2023-07-31T11:41:10;37653.59;;;-145.63;28.02
33422;BME280;19763;55.798;37.782;2023-07-31T11:43:35;37667.28;;;-145.63;28.21
33422;BME280;19763;55.798;37.782;2023-07-31T11:46:04;37663.38;;;-145.63;28.27
33422;BME280;19763;55.798;37.782;2023-07-31T11:48:33;37647.75;;;-145.63;28.04
33422;BME280;19763;55.798;37.782;2023-07-31T11:51:05;37663.38;;;-145.63;27.78
33422;BME280;19763;55.798;37.782;2023-07-31T11:56:37;37563.69;;;-145.63;28.85
33422;BME280;19763;55.798;37.782;2023-07-31T11:59:02;37688.78;;;-145.63;27.92
33422;BME280;19763;55.798;37.782;2023-07-31T12:01:31;37649.69;;;-145.63;28.55
33422;BME280;19763;55.798;37.782;2023-07-31T12:03:56;37677.06;;;-145.63;27.62
33422;BME280;19763;55.798;37.782;2023-07-31T12:06:33;37663.38;;;-145.63;28.90
33422;BME280;19763;55.798;37.782;2023-07-31T12:09:03;37659.47;;;-145.63;29.35
33422;BME280;19763;55.798;37.782;2023-07-31T12:11:29;37690.75;;;-145.63;27.92
33422;BME280;19763;55.798;37.782;2023-07-31T12:13:55;37667.28;;;-145.63;29.41
33422;BME280;19763;55.798;37.782;2023-07-31T12:16:20;37651.66;;;-145.63;29.09
33422;BME280;19763;55.798;37.782;2023-07-31T12:18:49;37630.16;;;-145.63;28.70
33422;BME280;19763;55.798;37.782;2023-07-31T12:21:14;37636.00;;;-145.63;29.71
33422;BME280;19763;55.798;37.782;2023-07-31T12:23:41;37636.00;;;-145.63;29.31
33422;BME280;19763;55.798;37.782;2023-07-31T12:26:14;37663.38;;;-145.63;28.88
33422;BME280;19763;55.798;37.782;2023-07-31T12:28:48;37657.50;;;-145.63;29.17
33422;BME280;19763;55.798;37.782;2023-07-31T12:31:16;37692.72;;;-145.63;28.85
33422;BME280;19763;55.798;37.782;2023-07-31T12:33:47;37639.91;;;-145.63;29.69
33422;BME280;19763;55.798;37.782;2023-07-31T12:36:18;37626.25;;;-145.63;29.73
33422;BME280;19763;55.798;37.782;2023-07-31T12:38:45;37716.16;;;-145.63;29.44
33422;BME280;19763;55.798;37.782;2023-07-31T12:41:11;37735.72;;;-145.63;29.65
33422;BME280;19763;55.798;37.782;2023-07-31T12:43:40;37696.63;;;-145.63;29.67
33422;BME280;19763;55.798;37.782;2023-07-31T12:46:06;37694.66;;;-145.63;29.65
33422;BME280;19763;55.798;37.782;2023-07-31T12:48:37;37722.03;;;-145.63;29.99